AirNav   Air Wisconsin Up To $57,000 Bonus
 
 668 users online  

6WI3 Bountiful Acres Airport
Delavan, Wisconsin, USA

GOING TO DELAVAN?


FAA INFORMATION EFFECTIVE 26 JANUARY 2023

Location

FAA Identifier: 6WI3
Lat/Long: 42-42-00.6000N 088-42-45.0000W
42-42.010000N 088-42.750000W
42.7001667,-88.7125000
(estimated)
Elevation: 975 ft. / 297 m (estimated)
From city: 5 miles NW of DELAVAN, WI
Time zone: UTC -6 (UTC -5 during Daylight Saving Time)
Zip code: 53505

Airport Operations

Airport use: Private use. Permission required prior to landing
Activation date: 06/2019
Control tower: no
ARTCC: CHICAGO CENTER
FSS: GREEN BAY FLIGHT SERVICE STATION
Attendance: 
Segmented circle: no

Airport Communications

WX AWOS-3 at JVL (15 nm W): PHONE 608-758-1723
WX AWOS-3PT at 57C (16 nm E): 118.125 (262-642-1845)
WX AWOS-3 at BUU (18 nm E): 125.275 (262-757-0907)

Nearby radio navigation aids

VOR radial/distance  VOR name  Freq  Var
JVLr061/19.3JANESVILLE VOR/DME114.3003E
BAEr215/31.3BADGER VOR/DME116.4002E
MSNr131/38.4MADISON VORTAC108.6003E

 
NDB name  Hdg/Dist  Freq  Var  ID
ROCK RIVER180/28.437101WRYV .-. -.-- ...-

Airport Services

Runway Information

Runway 9/27

Dimensions: 1700 x 50 ft. / 518 x 15 m
Surface: turf
RUNWAY 9  RUNWAY 27
Traffic pattern: leftleft
Runway heading: 090 true270 true

Airport Ownership and Management from official FAA records

Ownership: Privately-owned
Owner: ANDREA JARECKI
N9080 OAKWOOD LN
MUCKWONGO, WA 53149
Phone 262-725-1433
Manager: ANDREA JARECKI
N9080 OAKWOOD LN
MUCKWONAGO, WI 53149
Phone 262-725-1433
EMAIL ADDRESS: NEVERDO123@YAHOO.COM (ALL LOWER CASE)

Airport Operational Statistics

Aircraft based on the field: 2
Single engine airplanes: 1
Multi engine airplanes: 1
    

Additional Remarks

OWNER DESIRES ARPT BE CHARTED.

Instrument Procedures

There are no published instrument procedures at 6WI3.

Some nearby airports with instrument procedures:

C02 - Grand Geneva Resort Airport (15 nm E)
KJVL - Southern Wisconsin Regional Airport (15 nm W)
57C - East Troy Municipal Airport (16 nm E)
61C - Fort Atkinson Municipal Airport (16 nm N)
44C - Beloit Airport (17 nm SW)
KBUU - Burlington Municipal Airport (18 nm E)
 
Loc | Ops | Rwys | IFR | FBO | Links
Com | Nav | Svcs | Stats | Notes
Aerial photo
No photo
 
Airport distance calculator
Flying to Bountiful Acres Airport? Find the distance to fly.

From to 6WI3

Sunrise and sunset
Times for 27-Jan-2023
 Local
(UTC-6)
 Zulu
(UTC)
Morning civil twilight06:4512:45
Sunrise07:1513:15
Sunset17:0023:00
Evening civil twilight17:3123:31

Current date and time
Zulu (UTC)  27-Jan-2023 11:39:37
Local (UTC-6)  27-Jan-2023 05:39:37
 
METAR
KJVL 
14nm W 
271055Z AUTO 16006KT 10SM CLR M09/M12 A2980 RMK AO2
K57C 
16nm E 
271115Z AUTO 18005KT 10SM CLR M13/M15 A2981 RMK AO2 T11281155
KBUU 
18nm E 
271115Z AUTO 19003KT 10SM CLR M13/M16 A2983 RMK AO2 T11341156 PWINO
KRYV 
28nm N 
271115Z AUTO 17009KT 10SM CLR M11/M15 A2977 RMK AO2 T11131147
TAF
KJVL 
14nm W 
270926Z 2709/2806 20013KT P6SM SCT120 BKN200 FM271400 20017G30KT 3SM -SN BR OVC040 FM271600 20017G30KT 2SM -SHSN BR OVC015 FM272000 24015G25KT 6SM BR BKN014 FM280000 29015G25KT P6SM BKN060
NOTAMs
Click for the latest NOTAMs
NOTAMs are issued by the DoD/FAA and will open in a separate window not controlled by AirNav.

 

 
 

Would you like to see your business listed on this page?

 If your business provides an interesting product or service to pilots, flight crews, aircraft, or users of the Bountiful Acres Airport, you should consider listing it here.  To start the listing process, click on the button below
 
Add a business
 

Other Pages about Bountiful Acres Airport

Update a link
 
Copyright © AirNav, LLC. All rights reserved. Privacy Policy  Contact